sensor_id;sensor_type;location;lat;lon;timestamp;pressure;altitude;pressure_sealevel;temperature;humidity
56912;BME280;42800;53.928;27.662;2023-02-16T00:01:21;99853.38;;;2.10;100.00
56912;BME280;42800;53.928;27.662;2023-02-16T00:03:48;99849.94;;;2.04;100.00
56912;BME280;42800;53.928;27.662;2023-02-16T00:06:15;99863.72;;;2.03;100.00
56912;BME280;42800;53.928;27.662;2023-02-16T00:08:44;99864.25;;;2.05;100.00
56912;BME280;42800;53.928;27.662;2023-02-16T00:11:17;99878.56;;;2.05;100.00
56912;BME280;42800;53.928;27.662;2023-02-16T00:14:04;99915.47;;;1.96;100.00
56912;BME280;42800;53.928;27.662;2023-02-16T00:16:32;99927.75;;;1.88;100.00
56912;BME280;42800;53.928;27.662;2023-02-16T00:18:58;99945.16;;;2.01;100.00
56912;BME280;42800;53.928;27.662;2023-02-16T00:21:24;99926.25;;;2.01;100.00
56912;BME280;42800;53.928;27.662;2023-02-16T00:23:50;99896.03;;;1.94;100.00
56912;BME280;42800;53.928;27.662;2023-02-16T00:26:19;99905.41;;;2.02;100.00
56912;BME280;42800;53.928;27.662;2023-02-16T00:28:48;99895.75;;;1.96;100.00
56912;BME280;42800;53.928;27.662;2023-02-16T00:31:17;99900.78;;;2.02;100.00
56912;BME280;42800;53.928;27.662;2023-02-16T00:33:44;99881.38;;;2.00;100.00
56912;BME280;42800;53.928;27.662;2023-02-16T00:36:11;99865.03;;;1.86;100.00
56912;BME280;42800;53.928;27.662;2023-02-16T00:38:37;99890.31;;;1.96;100.00
56912;BME280;42800;53.928;27.662;2023-02-16T00:41:04;99871.63;;;1.99;100.00
56912;BME280;42800;53.928;27.662;2023-02-16T00:43:31;99864.09;;;1.96;100.00
56912;BME280;42800;53.928;27.662;2023-02-16T00:45:57;99865.19;;;1.95;100.00
56912;BME280;42800;53.928;27.662;2023-02-16T00:48:24;99862.66;;;2.04;100.00
56912;BME280;42800;53.928;27.662;2023-02-16T00:50:50;99851.63;;;2.00;100.00
56912;BME280;42800;53.928;27.662;2023-02-16T00:53:16;99838.31;;;2.04;100.00
56912;BME280;42800;53.928;27.662;2023-02-16T00:55:42;99835.03;;;2.07;100.00
56912;BME280;42800;53.928;27.662;2023-02-16T00:58:14;99816.69;;;2.04;100.00
56912;BME280;42800;53.928;27.662;2023-02-16T01:00:46;99857.31;;;1.99;100.00
56912;BME280;42800;53.928;27.662;2023-02-16T01:03:15;99838.91;;;2.01;100.00
56912;BME280;42800;53.928;27.662;2023-02-16T01:05:42;99832.97;;;1.99;100.00
56912;BME280;42800;53.928;27.662;2023-02-16T01:08:09;99838.31;;;2.04;100.00
56912;BME280;42800;53.928;27.662;2023-02-16T01:10:54;99829.41;;;2.03;100.00
56912;BME280;42800;53.928;27.662;2023-02-16T01:13:38;99840.13;;;2.08;100.00
56912;BME280;42800;53.928;27.662;2023-02-16T01:16:11;99811.75;;;2.06;100.00
56912;BME280;42800;53.928;27.662;2023-02-16T01:18:37;99799.94;;;2.02;100.00
56912;BME280;42800;53.928;27.662;2023-02-16T01:21:04;99793.41;;;2.03;100.00
56912;BME280;42800;53.928;27.662;2023-02-16T01:23:30;99793.34;;;2.08;100.00
56912;BME280;42800;53.928;27.662;2023-02-16T01:25:56;99791.66;;;2.12;100.00
56912;BME280;42800;53.928;27.662;2023-02-16T01:28:24;99775.44;;;2.12;100.00
56912;BME280;42800;53.928;27.662;2023-02-16T01:30:51;99763.38;;;2.04;100.00
56912;BME280;42800;53.928;27.662;2023-02-16T01:33:18;99781.72;;;2.07;100.00
56912;BME280;42800;53.928;27.662;2023-02-16T01:35:45;99761.69;;;2.08;100.00
56912;BME280;42800;53.928;27.662;2023-02-16T01:38:15;99757.34;;;1.94;100.00
56912;BME280;42800;53.928;27.662;2023-02-16T01:40:45;99777.91;;;1.89;100.00
56912;BME280;42800;53.928;27.662;2023-02-16T01:43:19;99824.09;;;1.74;100.00
56912;BME280;42800;53.928;27.662;2023-02-16T01:45:53;99826.63;;;1.65;100.00
56912;BME280;42800;53.928;27.662;2023-02-16T01:48:24;99878.88;;;1.80;100.00
56912;BME280;42800;53.928;27.662;2023-02-16T01:50:56;99866.25;;;1.75;100.00
56912;BME280;42800;53.928;27.662;2023-02-16T01:53:29;99921.22;;;1.89;100.00
56912;BME280;42800;53.928;27.662;2023-02-16T01:56:00;99876.31;;;1.46;100.00
56912;BME280;42800;53.928;27.662;2023-02-16T01:58:34;99961.56;;;1.86;100.00
56912;BME280;42800;53.928;27.662;2023-02-16T02:01:40;99916.69;;;1.85;100.00
56912;BME280;42800;53.928;27.662;2023-02-16T02:04:12;99899.16;;;1.82;100.00
56912;BME280;42800;53.928;27.662;2023-02-16T02:06:57;99912.38;;;1.84;100.00
56912;BME280;42800;53.928;27.662;2023-02-16T02:09:27;99939.47;;;1.79;100.00
56912;BME280;42800;53.928;27.662;2023-02-16T02:12:01;99906.69;;;1.85;100.00
56912;BME280;42800;53.928;27.662;2023-02-16T02:14:33;99876.72;;;1.58;100.00
56912;BME280;42800;53.928;27.662;2023-02-16T02:17:04;99954.81;;;1.59;100.00
56912;BME280;42800;53.928;27.662;2023-02-16T02:19:42;99950.00;;;1.80;100.00
56912;BME280;42800;53.928;27.662;2023-02-16T02:25:42;99872.09;;;1.82;100.00
56912;BME280;42800;53.928;27.662;2023-02-16T02:28:19;99865.22;;;1.71;100.00
56912;BME280;42800;53.928;27.662;2023-02-16T02:30:54;99879.31;;;1.68;100.00
56912;BME280;42800;53.928;27.662;2023-02-16T02:33:35;99901.06;;;1.58;100.00
56912;BME280;42800;53.928;27.662;2023-02-16T02:36:15;99923.88;;;1.47;100.00
56912;BME280;42800;53.928;27.662;2023-02-16T02:38:52;99959.25;;;1.50;100.00
56912;BME280;42800;53.928;27.662;2023-02-16T02:41:27;99973.75;;;1.30;100.00
56912;BME280;42800;53.928;27.662;2023-02-16T02:44:14;100017.22;;;1.34;100.00
56912;BME280;42800;53.928;27.662;2023-02-16T02:46:42;100030.47;;;0.86;100.00
56912;BME280;42800;53.928;27.662;2023-02-16T02:49:08;100090.06;;;1.05;100.00
56912;BME280;42800;53.928;27.662;2023-02-16T02:51:34;100111.41;;;0.96;100.00
56912;BME280;42800;53.928;27.662;2023-02-16T02:54:07;100142.81;;;0.82;100.00
56912;BME280;42800;53.928;27.662;2023-02-16T02:56:59;100188.69;;;0.82;100.00
56912;BME280;42800;53.928;27.662;2023-02-16T02:59:50;100210.56;;;0.85;100.00
56912;BME280;42800;53.928;27.662;2023-02-16T03:02:36;100222.41;;;0.89;100.00
56912;BME280;42800;53.928;27.662;2023-02-16T03:05:04;100212.28;;;0.35;100.00
56912;BME280;42800;53.928;27.662;2023-02-16T03:07:32;100279.94;;;-0.12;100.00
56912;BME280;42800;53.928;27.662;2023-02-16T03:10:17;100316.63;;;0.04;100.00
56912;BME280;42800;53.928;27.662;2023-02-16T03:13:05;100322.06;;;0.45;100.00
56912;BME280;42800;53.928;27.662;2023-02-16T03:15:33;100318.00;;;0.22;100.00
56912;BME280;42800;53.928;27.662;2023-02-16T03:18:02;100323.09;;;0.13;100.00
56912;BME280;42800;53.928;27.662;2023-02-16T03:20:48;100328.91;;;-0.31;100.00
56912;BME280;42800;53.928;27.662;2023-02-16T03:23:32;100338.72;;;-0.04;100.00
56912;BME280;42800;53.928;27.662;2023-02-16T03:26:18;100327.19;;;0.21;100.00
56912;BME280;42800;53.928;27.662;2023-02-16T03:29:03;100326.59;;;0.09;100.00
56912;BME280;42800;53.928;27.662;2023-02-16T03:31:47;100323.38;;;0.02;100.00
56912;BME280;42800;53.928;27.662;2023-02-16T03:34:14;100323.63;;;-0.05;100.00
56912;BME280;42800;53.928;27.662;2023-02-16T03:36:43;100317.72;;;0.08;100.00
56912;BME280;42800;53.928;27.662;2023-02-16T03:39:11;100321.50;;;0.17;100.00
56912;BME280;42800;53.928;27.662;2023-02-16T03:41:39;100319.16;;;-0.47;100.00
56912;BME280;42800;53.928;27.662;2023-02-16T03:44:07;100317.38;;;-0.11;100.00
56912;BME280;42800;53.928;27.662;2023-02-16T03:46:33;100313.03;;;-0.27;100.00
56912;BME280;42800;53.928;27.662;2023-02-16T03:49:00;100304.13;;;-0.28;100.00
56912;BME280;42800;53.928;27.662;2023-02-16T03:51:26;100301.53;;;0.13;100.00
56912;BME280;42800;53.928;27.662;2023-02-16T03:53:53;100299.44;;;-0.63;100.00
56912;BME280;42800;53.928;27.662;2023-02-16T03:56:19;100295.78;;;-0.94;100.00
56912;BME280;42800;53.928;27.662;2023-02-16T03:58:45;100288.59;;;-0.83;100.00
56912;BME280;42800;53.928;27.662;2023-02-16T04:01:11;100284.19;;;-1.00;100.00
56912;BME280;42800;53.928;27.662;2023-02-16T04:03:37;100272.84;;;-0.49;100.00
56912;BME280;42800;53.928;27.662;2023-02-16T04:06:05;100269.09;;;-0.28;100.00
56912;BME280;42800;53.928;27.662;2023-02-16T04:08:31;100279.63;;;-0.36;100.00
56912;BME280;42800;53.928;27.662;2023-02-16T04:10:58;100274.56;;;-0.02;100.00
56912;BME280;42800;53.928;27.662;2023-02-16T04:13:25;100278.63;;;0.01;100.00
56912;BME280;42800;53.928;27.662;2023-02-16T04:15:51;100281.84;;;0.03;100.00
56912;BME280;42800;53.928;27.662;2023-02-16T04:18:17;100274.97;;;-0.51;100.00
56912;BME280;42800;53.928;27.662;2023-02-16T04:20:43;100276.47;;;-0.81;100.00
56912;BME280;42800;53.928;27.662;2023-02-16T04:23:10;100266.69;;;-0.97;100.00
56912;BME280;42800;53.928;27.662;2023-02-16T04:25:36;100245.06;;;-1.17;100.00
56912;BME280;42800;53.928;27.662;2023-02-16T04:28:03;100230.66;;;-0.91;100.00
56912;BME280;42800;53.928;27.662;2023-02-16T04:30:29;100219.31;;;-0.98;100.00
56912;BME280;42800;53.928;27.662;2023-02-16T04:32:56;100209.59;;;-1.09;100.00
56912;BME280;42800;53.928;27.662;2023-02-16T04:35:23;100192.44;;;-0.88;100.00
56912;BME280;42800;53.928;27.662;2023-02-16T04:37:49;100180.81;;;-0.99;100.00
56912;BME280;42800;53.928;27.662;2023-02-16T04:40:17;100166.03;;;-0.96;100.00
56912;BME280;42800;53.928;27.662;2023-02-16T04:42:44;100169.31;;;-0.79;100.00
56912;BME280;42800;53.928;27.662;2023-02-16T04:45:11;100168.31;;;-0.52;100.00
56912;BME280;42800;53.928;27.662;2023-02-16T04:47:37;100168.88;;;-0.25;100.00
56912;BME280;42800;53.928;27.662;2023-02-16T04:50:04;100195.53;;;-0.28;100.00
56912;BME280;42800;53.928;27.662;2023-02-16T04:52:31;100206.53;;;-0.50;100.00
56912;BME280;42800;53.928;27.662;2023-02-16T04:54:58;100215.47;;;-0.50;100.00
56912;BME280;42800;53.928;27.662;2023-02-16T04:57:25;100217.91;;;-0.43;100.00
56912;BME280;42800;53.928;27.662;2023-02-16T04:59:51;100221.97;;;-0.20;100.00
56912;BME280;42800;53.928;27.662;2023-02-16T05:02:18;100215.78;;;-0.15;100.00
56912;BME280;42800;53.928;27.662;2023-02-16T05:04:44;100231.69;;;0.32;100.00
56912;BME280;42800;53.928;27.662;2023-02-16T05:07:10;100238.44;;;0.45;100.00
56912;BME280;42800;53.928;27.662;2023-02-16T05:09:36;100246.25;;;0.57;100.00
56912;BME280;42800;53.928;27.662;2023-02-16T05:12:02;100238.16;;;0.46;100.00
56912;BME280;42800;53.928;27.662;2023-02-16T05:14:47;100229.25;;;0.36;100.00
56912;BME280;42800;53.928;27.662;2023-02-16T05:17:16;100213.31;;;0.60;100.00
56912;BME280;42800;53.928;27.662;2023-02-16T05:19:52;100166.91;;;0.53;100.00
56912;BME280;42800;53.928;27.662;2023-02-16T05:22:18;100146.94;;;0.64;100.00
56912;BME280;42800;53.928;27.662;2023-02-16T05:24:45;100097.47;;;0.79;100.00
56912;BME280;42800;53.928;27.662;2023-02-16T05:27:14;100060.53;;;0.74;100.00
56912;BME280;42800;53.928;27.662;2023-02-16T05:29:40;100015.44;;;0.75;100.00
56912;BME280;42800;53.928;27.662;2023-02-16T05:32:06;99960.38;;;0.26;100.00
56912;BME280;42800;53.928;27.662;2023-02-16T05:34:33;99956.88;;;0.31;100.00
56912;BME280;42800;53.928;27.662;2023-02-16T05:37:00;99943.31;;;-0.24;100.00
56912;BME280;42800;53.928;27.662;2023-02-16T05:39:26;100006.38;;;-0.30;100.00
56912;BME280;42800;53.928;27.662;2023-02-16T05:41:52;100055.41;;;-0.08;100.00
56912;BME280;42800;53.928;27.662;2023-02-16T05:44:18;100056.44;;;0.07;100.00
56912;BME280;42800;53.928;27.662;2023-02-16T05:46:45;100014.69;;;0.04;100.00
56912;BME280;42800;53.928;27.662;2023-02-16T05:49:12;100012.19;;;0.18;100.00
56912;BME280;42800;53.928;27.662;2023-02-16T05:51:39;99967.78;;;-0.10;100.00
56912;BME280;42800;53.928;27.662;2023-02-16T05:54:06;99958.31;;;0.03;100.00
56912;BME280;42800;53.928;27.662;2023-02-16T05:56:32;99945.69;;;-0.07;100.00
56912;BME280;42800;53.928;27.662;2023-02-16T05:58:59;99919.63;;;0.33;100.00
56912;BME280;42800;53.928;27.662;2023-02-16T06:01:25;99856.63;;;0.13;100.00
56912;BME280;42800;53.928;27.662;2023-02-16T06:03:52;99805.22;;;-0.01;100.00
56912;BME280;42800;53.928;27.662;2023-02-16T06:06:18;99822.47;;;0.04;100.00
56912;BME280;42800;53.928;27.662;2023-02-16T06:08:45;99822.41;;;0.09;100.00
56912;BME280;42800;53.928;27.662;2023-02-16T06:11:12;99830.69;;;-0.22;100.00
56912;BME280;42800;53.928;27.662;2023-02-16T06:13:53;99826.13;;;-0.27;100.00
56912;BME280;42800;53.928;27.662;2023-02-16T06:16:23;99832.53;;;-0.12;100.00
56912;BME280;42800;53.928;27.662;2023-02-16T06:18:49;99830.09;;;-0.14;100.00
56912;BME280;42800;53.928;27.662;2023-02-16T06:21:15;99815.44;;;0.08;100.00
56912;BME280;42800;53.928;27.662;2023-02-16T06:23:42;99785.00;;;0.02;100.00
56912;BME280;42800;53.928;27.662;2023-02-16T06:26:08;99743.28;;;0.29;100.00
56912;BME280;42800;53.928;27.662;2023-02-16T06:28:35;99698.09;;;0.15;100.00
56912;BME280;42800;53.928;27.662;2023-02-16T06:31:01;99665.41;;;0.22;100.00
56912;BME280;42800;53.928;27.662;2023-02-16T06:33:27;99654.13;;;-0.14;100.00
56912;BME280;42800;53.928;27.662;2023-02-16T06:35:53;99700.00;;;-0.25;100.00
56912;BME280;42800;53.928;27.662;2023-02-16T06:38:20;99718.44;;;-0.03;100.00
56912;BME280;42800;53.928;27.662;2023-02-16T06:40:46;99694.78;;;0.23;100.00
56912;BME280;42800;53.928;27.662;2023-02-16T06:43:12;99659.53;;;0.15;100.00
56912;BME280;42800;53.928;27.662;2023-02-16T06:45:39;99658.06;;;-0.02;100.00
56912;BME280;42800;53.928;27.662;2023-02-16T06:48:05;99649.84;;;0.14;100.00
56912;BME280;42800;53.928;27.662;2023-02-16T06:50:31;99630.66;;;0.15;100.00
56912;BME280;42800;53.928;27.662;2023-02-16T06:52:58;99621.69;;;0.25;100.00
56912;BME280;42800;53.928;27.662;2023-02-16T06:55:24;99645.91;;;0.30;100.00
56912;BME280;42800;53.928;27.662;2023-02-16T06:57:50;99621.88;;;0.34;100.00
56912;BME280;42800;53.928;27.662;2023-02-16T07:00:17;99602.94;;;0.39;100.00
56912;BME280;42800;53.928;27.662;2023-02-16T07:02:44;99549.25;;;0.13;100.00
56912;BME280;42800;53.928;27.662;2023-02-16T07:05:11;99579.50;;;0.10;100.00
56912;BME280;42800;53.928;27.662;2023-02-16T07:07:37;99638.31;;;0.03;100.00
56912;BME280;42800;53.928;27.662;2023-02-16T07:10:04;99657.19;;;0.03;100.00
56912;BME280;42800;53.928;27.662;2023-02-16T07:12:30;99672.78;;;0.40;100.00
56912;BME280;42800;53.928;27.662;2023-02-16T07:14:57;99632.47;;;0.25;100.00
56912;BME280;42800;53.928;27.662;2023-02-16T07:17:23;99603.63;;;-0.04;100.00
56912;BME280;42800;53.928;27.662;2023-02-16T07:19:50;99621.72;;;0.20;100.00
56912;BME280;42800;53.928;27.662;2023-02-16T07:22:16;99621.22;;;0.42;100.00
56912;BME280;42800;53.928;27.662;2023-02-16T07:24:42;99604.56;;;0.11;100.00
56912;BME280;42800;53.928;27.662;2023-02-16T07:27:08;99673.03;;;0.10;100.00
56912;BME280;42800;53.928;27.662;2023-02-16T07:29:35;99705.97;;;0.36;100.00
56912;BME280;42800;53.928;27.662;2023-02-16T07:32:01;99701.22;;;0.57;100.00
56912;BME280;42800;53.928;27.662;2023-02-16T07:34:28;99670.44;;;0.58;100.00
56912;BME280;42800;53.928;27.662;2023-02-16T07:36:55;99647.72;;;0.64;100.00
56912;BME280;42800;53.928;27.662;2023-02-16T07:39:21;99622.69;;;0.58;100.00
56912;BME280;42800;53.928;27.662;2023-02-16T07:41:47;99631.91;;;0.52;100.00
56912;BME280;42800;53.928;27.662;2023-02-16T07:44:13;99645.63;;;0.03;100.00
56912;BME280;42800;53.928;27.662;2023-02-16T07:46:40;99720.41;;;0.79;100.00
56912;BME280;42800;53.928;27.662;2023-02-16T07:49:06;99658.88;;;0.76;100.00
56912;BME280;42800;53.928;27.662;2023-02-16T07:51:32;99609.81;;;0.93;100.00
56912;BME280;42800;53.928;27.662;2023-02-16T07:54:00;99543.28;;;0.83;100.00
56912;BME280;42800;53.928;27.662;2023-02-16T07:56:27;99506.81;;;0.86;100.00
56912;BME280;42800;53.928;27.662;2023-02-16T07:58:55;99490.19;;;0.98;100.00
56912;BME280;42800;53.928;27.662;2023-02-16T08:01:22;99477.13;;;1.05;100.00
56912;BME280;42800;53.928;27.662;2023-02-16T08:03:50;99455.97;;;0.93;100.00
56912;BME280;42800;53.928;27.662;2023-02-16T08:06:16;99427.16;;;0.69;100.00
56912;BME280;42800;53.928;27.662;2023-02-16T08:08:43;99470.94;;;0.47;100.00
56912;BME280;42800;53.928;27.662;2023-02-16T08:11:12;99476.25;;;0.90;100.00
56912;BME280;42800;53.928;27.662;2023-02-16T08:13:39;99416.06;;;0.90;100.00
56912;BME280;42800;53.928;27.662;2023-02-16T08:16:09;99405.50;;;0.93;100.00
56912;BME280;42800;53.928;27.662;2023-02-16T08:18:36;99375.53;;;0.76;100.00
56912;BME280;42800;53.928;27.662;2023-02-16T08:21:07;99415.28;;;1.03;100.00
56912;BME280;42800;53.928;27.662;2023-02-16T08:23:38;99361.53;;;1.07;100.00
56912;BME280;42800;53.928;27.662;2023-02-16T08:26:08;99356.22;;;1.15;100.00
56912;BME280;42800;53.928;27.662;2023-02-16T08:28:36;99339.31;;;1.10;100.00
56912;BME280;42800;53.928;27.662;2023-02-16T08:31:03;99345.94;;;1.04;100.00
56912;BME280;42800;53.928;27.662;2023-02-16T08:33:29;99324.22;;;1.09;100.00
56912;BME280;42800;53.928;27.662;2023-02-16T08:35:56;99321.06;;;0.74;100.00
56912;BME280;42800;53.928;27.662;2023-02-16T08:38:22;99370.53;;;0.51;100.00
56912;BME280;42800;53.928;27.662;2023-02-16T08:40:49;99458.66;;;0.93;100.00
56912;BME280;42800;53.928;27.662;2023-02-16T08:43:15;99436.91;;;1.03;100.00
56912;BME280;42800;53.928;27.662;2023-02-16T08:45:44;99401.91;;;0.98;100.00
56912;BME280;42800;53.928;27.662;2023-02-16T08:48:11;99386.53;;;1.12;100.00
56912;BME280;42800;53.928;27.662;2023-02-16T08:50:42;99354.25;;;0.75;100.00
56912;BME280;42800;53.928;27.662;2023-02-16T08:53:11;99383.75;;;0.85;100.00
56912;BME280;42800;53.928;27.662;2023-02-16T08:55:37;99403.75;;;0.84;100.00
56912;BME280;42800;53.928;27.662;2023-02-16T08:58:04;99378.16;;;1.14;100.00
56912;BME280;42800;53.928;27.662;2023-02-16T09:00:30;99348.84;;;1.21;100.00
56912;BME280;42800;53.928;27.662;2023-02-16T09:03:00;99303.41;;;1.09;100.00
56912;BME280;42800;53.928;27.662;2023-02-16T09:05:26;99327.72;;;1.09;100.00
56912;BME280;42800;53.928;27.662;2023-02-16T09:07:53;99311.44;;;1.14;100.00
56912;BME280;42800;53.928;27.662;2023-02-16T09:10:19;99286.22;;;1.19;100.00
56912;BME280;42800;53.928;27.662;2023-02-16T09:12:47;99273.53;;;1.33;100.00
56912;BME280;42800;53.928;27.662;2023-02-16T09:15:14;99261.69;;;1.43;100.00
56912;BME280;42800;53.928;27.662;2023-02-16T09:17:40;99253.53;;;1.34;100.00
56912;BME280;42800;53.928;27.662;2023-02-16T09:20:09;99265.53;;;1.28;100.00
56912;BME280;42800;53.928;27.662;2023-02-16T09:22:35;99258.13;;;1.34;100.00
56912;BME280;42800;53.928;27.662;2023-02-16T09:25:01;99266.31;;;1.01;100.00
56912;BME280;42800;53.928;27.662;2023-02-16T09:27:28;99358.69;;;0.98;100.00
56912;BME280;42800;53.928;27.662;2023-02-16T09:29:54;99362.69;;;1.33;100.00
56912;BME280;42800;53.928;27.662;2023-02-16T09:32:27;99344.88;;;0.86;100.00
56912;BME280;42800;53.928;27.662;2023-02-16T09:34:53;99450.63;;;1.07;100.00
56912;BME280;42800;53.928;27.662;2023-02-16T09:37:20;99436.81;;;0.57;100.00
56912;BME280;42800;53.928;27.662;2023-02-16T09:39:47;99523.81;;;0.67;100.00
56912;BME280;42800;53.928;27.662;2023-02-16T09:42:22;99579.03;;;1.13;100.00
56912;BME280;42800;53.928;27.662;2023-02-16T09:44:53;99540.38;;;1.17;100.00
56912;BME280;42800;53.928;27.662;2023-02-16T09:47:25;99465.16;;;0.92;100.00
56912;BME280;42800;53.928;27.662;2023-02-16T09:49:54;99526.72;;;0.71;100.00
56912;BME280;42800;53.928;27.662;2023-02-16T09:52:29;99574.94;;;0.97;100.00
56912;BME280;42800;53.928;27.662;2023-02-16T09:55:03;99579.06;;;0.94;100.00
56912;BME280;42800;53.928;27.662;2023-02-16T09:57:45;99546.59;;;1.18;100.00
56912;BME280;42800;53.928;27.662;2023-02-16T10:00:25;99514.25;;;1.13;100.00
56912;BME280;42800;53.928;27.662;2023-02-16T10:02:57;99503.44;;;1.13;100.00
56912;BME280;42800;53.928;27.662;2023-02-16T10:05:28;99485.66;;;0.93;100.00
56912;BME280;42800;53.928;27.662;2023-02-16T10:07:59;99532.22;;;1.36;100.00
56912;BME280;42800;53.928;27.662;2023-02-16T10:10:32;99527.00;;;1.26;100.00
56912;BME280;42800;53.928;27.662;2023-02-16T10:13:02;99512.56;;;1.50;100.00
56912;BME280;42800;53.928;27.662;2023-02-16T10:15:33;99451.78;;;1.94;100.00
56912;BME280;42800;53.928;27.662;2023-02-16T10:18:04;99322.56;;;2.04;100.00
56912;BME280;42800;53.928;27.662;2023-02-16T10:20:34;99226.41;;;1.76;100.00
56912;BME280;42800;53.928;27.662;2023-02-16T10:23:10;99255.78;;;1.55;100.00
56912;BME280;42800;53.928;27.662;2023-02-16T10:25:42;99268.69;;;1.72;100.00
56912;BME280;42800;53.928;27.662;2023-02-16T10:28:15;99323.53;;;1.58;100.00
56912;BME280;42800;53.928;27.662;2023-02-16T10:30:47;99355.44;;;1.29;100.00
56912;BME280;42800;53.928;27.662;2023-02-16T10:33:15;99393.41;;;1.51;100.00
56912;BME280;42800;53.928;27.662;2023-02-16T10:35:45;99473.44;;;1.33;100.00
56912;BME280;42800;53.928;27.662;2023-02-16T10:38:17;99463.97;;;1.63;100.00
56912;BME280;42800;53.928;27.662;2023-02-16T10:40:52;99409.00;;;1.54;100.00
56912;BME280;42800;53.928;27.662;2023-02-16T10:43:25;99449.22;;;1.56;100.00
56912;BME280;42800;53.928;27.662;2023-02-16T10:45:58;99436.97;;;1.91;100.00
56912;BME280;42800;53.928;27.662;2023-02-16T10:48:26;99382.78;;;2.10;100.00
56912;BME280;42800;53.928;27.662;2023-02-16T10:50:56;99333.25;;;2.23;100.00
56912;BME280;42800;53.928;27.662;2023-02-16T10:53:35;99216.72;;;2.42;100.00
56912;BME280;42800;53.928;27.662;2023-02-16T10:56:22;99131.75;;;2.12;100.00
56912;BME280;42800;53.928;27.662;2023-02-16T10:58:53;99160.19;;;2.09;100.00
56912;BME280;42800;53.928;27.662;2023-02-16T11:01:27;99118.47;;;2.33;100.00
56912;BME280;42800;53.928;27.662;2023-02-16T11:03:56;99078.50;;;2.30;100.00
56912;BME280;42800;53.928;27.662;2023-02-16T11:06:23;99040.31;;;2.23;100.00
56912;BME280;42800;53.928;27.662;2023-02-16T11:08:52;99033.88;;;2.01;100.00
56912;BME280;42800;53.928;27.662;2023-02-16T11:11:23;99093.63;;;2.00;100.00
56912;BME280;42800;53.928;27.662;2023-02-16T11:13:57;99066.75;;;1.95;100.00
56912;BME280;42800;53.928;27.662;2023-02-16T11:16:24;99079.31;;;1.99;100.00
56912;BME280;42800;53.928;27.662;2023-02-16T11:18:57;99096.41;;;2.08;100.00
56912;BME280;42800;53.928;27.662;2023-02-16T11:21:42;99169.59;;;1.89;100.00
56912;BME280;42800;53.928;27.662;2023-02-16T11:24:09;99235.31;;;1.76;100.00
56912;BME280;42800;53.928;27.662;2023-02-16T11:26:37;99278.03;;;1.38;100.00
56912;BME280;42800;53.928;27.662;2023-02-16T11:29:07;99384.38;;;1.56;100.00
56912;BME280;42800;53.928;27.662;2023-02-16T11:31:42;99422.41;;;1.59;100.00
56912;BME280;42800;53.928;27.662;2023-02-16T11:34:14;99433.44;;;1.63;100.00
56912;BME280;42800;53.928;27.662;2023-02-16T11:36:47;99446.31;;;1.38;100.00
56912;BME280;42800;53.928;27.662;2023-02-16T11:39:18;99478.69;;;1.71;100.00
56912;BME280;42800;53.928;27.662;2023-02-16T11:41:49;99444.03;;;1.59;100.00
56912;BME280;42800;53.928;27.662;2023-02-16T11:44:24;99468.06;;;1.61;100.00
56912;BME280;42800;53.928;27.662;2023-02-16T11:46:52;99474.41;;;1.98;100.00
56912;BME280;42800;53.928;27.662;2023-02-16T11:49:21;99421.31;;;2.02;100.00
56912;BME280;42800;53.928;27.662;2023-02-16T11:51:47;99359.50;;;2.09;100.00
56912;BME280;42800;53.928;27.662;2023-02-16T11:54:16;99308.31;;;1.90;100.00
56912;BME280;42800;53.928;27.662;2023-02-16T11:56:43;99355.47;;;1.70;100.00
56912;BME280;42800;53.928;27.662;2023-02-16T11:59:35;99356.56;;;1.69;100.00
56912;BME280;42800;53.928;27.662;2023-02-16T12:02:22;99385.69;;;1.58;100.00
56912;BME280;42800;53.928;27.662;2023-02-16T12:05:05;99449.13;;;1.47;100.00
56912;BME280;42800;53.928;27.662;2023-02-16T12:07:39;99477.19;;;1.32;100.00
56912;BME280;42800;53.928;27.662;2023-02-16T12:10:15;99514.84;;;1.89;100.00
56912;BME280;42800;53.928;27.662;2023-02-16T12:12:49;99481.06;;;1.59;100.00
56912;BME280;42800;53.928;27.662;2023-02-16T12:15:25;99493.06;;;1.53;100.00
56912;BME280;42800;53.928;27.662;2023-02-16T12:18:04;99512.91;;;1.62;100.00
56912;BME280;42800;53.928;27.662;2023-02-16T12:20:44;99494.13;;;1.71;100.00
56912;BME280;42800;53.928;27.662;2023-02-16T12:23:35;99487.28;;;1.73;100.00
56912;BME280;42800;53.928;27.662;2023-02-16T12:29:17;99470.81;;;1.42;100.00
56912;BME280;42800;53.928;27.662;2023-02-16T12:31:59;99447.38;;;1.24;100.00
56912;BME280;42800;53.928;27.662;2023-02-16T12:34:36;99480.75;;;1.47;100.00
56912;BME280;42800;53.928;27.662;2023-02-16T12:37:13;99454.34;;;1.44;100.00
56912;BME280;42800;53.928;27.662;2023-02-16T12:39:51;99445.78;;;1.36;100.00
56912;BME280;42800;53.928;27.662;2023-02-16T12:42:38;99467.28;;;1.60;100.00
56912;BME280;42800;53.928;27.662;2023-02-16T12:45:09;99429.53;;;1.55;100.00
56912;BME280;42800;53.928;27.662;2023-02-16T12:47:42;99397.47;;;1.35;100.00
56912;BME280;42800;53.928;27.662;2023-02-16T12:50:17;99422.41;;;1.59;100.00
56912;BME280;42800;53.928;27.662;2023-02-16T12:52:50;99402.41;;;1.60;100.00
56912;BME280;42800;53.928;27.662;2023-02-16T12:55:19;99361.56;;;1.62;100.00
56912;BME280;42800;53.928;27.662;2023-02-16T12:57:55;99368.34;;;1.18;100.00
56912;BME280;42800;53.928;27.662;2023-02-16T13:00:27;99415.81;;;1.05;100.00
56912;BME280;42800;53.928;27.662;2023-02-16T13:03:06;99444.84;;;1.60;100.00
56912;BME280;42800;53.928;27.662;2023-02-16T13:05:36;99403.50;;;1.46;100.00
56912;BME280;42800;53.928;27.662;2023-02-16T13:08:07;99408.63;;;1.01;100.00